Time;durP1;ratioP1;P1;durP2;ratioP2;P2;SDS_P1;SDS_P2;PMS_P1;PMS_P2;Temp;Humidity;BMP_temperature;BMP_pressure;BME280_temperature;BME280_humidity;BME280_pressure;Samples;Min_cycle;Max_cycle;Signal;HPM_P1;HPM_P2
2021/04/25 00:01:03;;;;;;;6.55;3.63;;;;;;;;;;5091566;28;20927;-81
2021/04/25 00:03:30;;;;;;;6.65;3.58;;;;;;;;;;5091659;28;20368;-81
2021/04/25 00:05:56;;;;;;;5.00;3.22;;;;;;;;;;5073095;28;20385;-81
2021/04/25 00:08:22;;;;;;;7.68;3.42;;;;;;;;;;5089507;28;20851;-81
2021/04/25 00:10:48;;;;;;;6.30;3.50;;;;;;;;;;5090120;28;20412;-80
2021/04/25 00:13:14;;;;;;;6.97;3.85;;;;;;;;;;5073105;28;20850;-80
2021/04/25 00:15:40;;;;;;;5.87;3.70;;;;;;;;;;5095871;28;20379;-82
2021/04/25 00:18:06;;;;;;;5.45;3.67;;;;;;;;;;5072072;28;20395;-82
2021/04/25 00:20:32;;;;;;;7.63;4.18;;;;;;;;;;5072170;28;20466;-83
2021/04/25 00:22:58;;;;;;;6.00;3.90;;;;;;;;;;5091177;28;20368;-80
2021/04/25 00:25:24;;;;;;;5.80;3.60;;;;;;;;;;5073082;28;20455;-82
2021/04/25 00:27:50;;;;;;;6.07;3.80;;;;;;;;;;5091402;28;20515;-80
2021/04/25 00:30:17;;;;;;;5.35;3.67;;;;;;;;;;5090956;28;20368;-81
2021/04/25 00:32:44;;;;;;;6.13;3.70;;;;;;;;;;5090629;28;20918;-81
2021/04/25 00:35:10;;;;;;;6.10;3.97;;;;;;;;;;5072680;28;20801;-81
2021/04/25 00:37:36;;;;;;;6.95;3.92;;;;;;;;;;5090745;28;20459;-82
2021/04/25 00:40:04;;;;;;;6.15;3.50;;;;;;;;;;5090531;28;20539;-81
2021/04/25 00:42:30;;;;;;;5.18;3.45;;;;;;;;;;5090255;28;20836;-82
2021/04/25 00:44:56;;;;;;;5.68;3.80;;;;;;;;;;5090487;28;20452;-82
2021/04/25 00:47:22;;;;;;;7.13;3.47;;;;;;;;;;5090731;28;20360;-81
2021/04/25 00:49:48;;;;;;;4.25;3.05;;;;;;;;;;5072714;28;20885;-80
2021/04/25 00:52:15;;;;;;;5.80;3.20;;;;;;;;;;5090284;28;20372;-82
2021/04/25 00:54:41;;;;;;;5.55;3.72;;;;;;;;;;5072372;28;20766;-81
2021/04/25 00:57:07;;;;;;;6.63;3.67;;;;;;;;;;5071948;28;20373;-80
2021/04/25 00:59:33;;;;;;;5.80;3.45;;;;;;;;;;5090342;28;20403;-81
2021/04/25 01:01:59;;;;;;;7.22;3.78;;;;;;;;;;5090536;28;20935;-82
2021/04/25 01:04:25;;;;;;;5.17;3.57;;;;;;;;;;5090298;28;20415;-81
2021/04/25 01:06:51;;;;;;;4.80;3.30;;;;;;;;;;5090476;28;20402;-82
2021/04/25 01:09:17;;;;;;;6.10;3.50;;;;;;;;;;5071581;28;20896;-82
2021/04/25 01:11:43;;;;;;;4.85;3.60;;;;;;;;;;5090211;28;20364;-83
2021/04/25 01:14:09;;;;;;;5.38;3.33;;;;;;;;;;5071698;28;20704;-82
2021/04/25 01:16:35;;;;;;;5.57;3.17;;;;;;;;;;5090392;28;20371;-81
2021/04/25 01:19:02;;;;;;;4.97;3.42;;;;;;;;;;5089540;28;20400;-82
2021/04/25 01:21:28;;;;;;;4.93;3.38;;;;;;;;;;5090457;28;20376;-80
2021/04/25 01:23:54;;;;;;;5.35;3.55;;;;;;;;;;5090228;28;20375;-80
2021/04/25 01:26:20;;;;;;;7.05;3.80;;;;;;;;;;5071979;28;20893;-81
2021/04/25 01:28:45;;;;;;;4.37;3.10;;;;;;;;;;5090128;28;20521;-80
2021/04/25 01:31:11;;;;;;;5.38;3.42;;;;;;;;;;5090251;28;20376;-80
2021/04/25 01:33:37;;;;;;;7.10;3.97;;;;;;;;;;5090567;28;20411;-80
2021/04/25 01:36:04;;;;;;;5.13;3.72;;;;;;;;;;5072274;28;20862;-82
2021/04/25 01:38:31;;;;;;;6.80;3.50;;;;;;;;;;5089819;28;20377;-80
2021/04/25 01:40:57;;;;;;;5.63;3.47;;;;;;;;;;5089826;28;20465;-82
2021/04/25 01:43:23;;;;;;;6.97;3.78;;;;;;;;;;5090193;28;20878;-80
2021/04/25 01:45:49;;;;;;;6.13;3.60;;;;;;;;;;5089381;28;20380;-82
2021/04/25 01:48:15;;;;;;;6.68;3.88;;;;;;;;;;5089499;28;20751;-82
2021/04/25 01:50:41;;;;;;;6.50;3.90;;;;;;;;;;5089640;28;20369;-81
2021/04/25 01:53:07;;;;;;;4.83;3.27;;;;;;;;;;5089262;28;20459;-82
2021/04/25 01:55:35;;;;;;;4.50;3.22;;;;;;;;;;5089471;28;20368;-82
2021/04/25 01:58:01;;;;;;;6.10;3.70;;;;;;;;;;5089236;28;20376;-80
2021/04/25 02:00:32;;;;;;;6.10;3.63;;;;;;;;;;5076620;28;20404;-80
2021/04/25 02:02:58;;;;;;;5.10;3.45;;;;;;;;;;5089121;28;20364;-81
2021/04/25 02:05:24;;;;;;;7.10;4.40;;;;;;;;;;5089743;28;20462;-80
2021/04/25 02:07:51;;;;;;;6.47;4.25;;;;;;;;;;5089634;28;20364;-82
2021/04/25 02:10:17;;;;;;;6.28;3.80;;;;;;;;;;5089418;28;20372;-80
2021/04/25 02:12:43;;;;;;;5.80;3.58;;;;;;;;;;5089193;28;20859;-81
2021/04/25 02:15:10;;;;;;;5.03;3.80;;;;;;;;;;5089127;28;20463;-80
2021/04/25 02:17:36;;;;;;;4.55;3.55;;;;;;;;;;5089414;28;20372;-81
2021/04/25 02:20:04;;;;;;;6.10;3.67;;;;;;;;;;5088848;28;20474;-81
2021/04/25 02:22:30;;;;;;;5.88;3.90;;;;;;;;;;5088761;28;20373;-82
2021/04/25 02:24:56;;;;;;;6.28;4.20;;;;;;;;;;5089226;28;20452;-80
2021/04/25 02:27:21;;;;;;;6.32;3.90;;;;;;;;;;5088986;28;20376;-81
2021/04/25 02:29:47;;;;;;;6.33;3.70;;;;;;;;;;5070809;28;20443;-80
2021/04/25 02:32:13;;;;;;;5.53;3.72;;;;;;;;;;5088888;28;20438;-80
2021/04/25 02:34:39;;;;;;;6.95;3.88;;;;;;;;;;5089268;28;20471;-80
2021/04/25 02:37:05;;;;;;;4.68;3.85;;;;;;;;;;5088880;28;20373;-80
2021/04/25 02:39:31;;;;;;;5.38;4.07;;;;;;;;;;5089282;28;20396;-81
2021/04/25 02:41:57;;;;;;;5.37;3.40;;;;;;;;;;5071374;28;20905;-80
2021/04/25 02:44:23;;;;;;;6.40;3.85;;;;;;;;;;5089117;28;20368;-80
2021/04/25 02:46:49;;;;;;;6.32;3.88;;;;;;;;;;5089116;28;20384;-81
2021/04/25 02:49:15;;;;;;;5.20;3.47;;;;;;;;;;5088877;28;20399;-80
2021/04/25 02:51:41;;;;;;;7.30;4.13;;;;;;;;;;5088847;28;20914;-81
2021/04/25 02:54:07;;;;;;;7.25;4.00;;;;;;;;;;5088720;28;20445;-83
2021/04/25 02:56:33;;;;;;;5.05;3.80;;;;;;;;;;5072332;28;20406;-81
2021/04/25 02:58:59;;;;;;;5.57;3.70;;;;;;;;;;5074546;28;20388;-82
2021/04/25 03:01:25;;;;;;;5.38;3.50;;;;;;;;;;5095446;28;20392;-80
2021/04/25 03:03:51;;;;;;;6.50;3.78;;;;;;;;;;5094337;28;20390;-83
2021/04/25 03:06:17;;;;;;;6.73;4.00;;;;;;;;;;5075312;28;20391;-80
2021/04/25 03:08:43;;;;;;;5.30;4.00;;;;;;;;;;5092841;28;20469;-80
2021/04/25 03:11:09;;;;;;;6.25;3.90;;;;;;;;;;5092742;28;20468;-81
2021/04/25 03:13:35;;;;;;;6.18;3.53;;;;;;;;;;5092694;28;20383;-80
2021/04/25 03:16:01;;;;;;;6.03;3.60;;;;;;;;;;5074176;28;20380;-80
2021/04/25 03:18:27;;;;;;;6.67;3.83;;;;;;;;;;5092376;28;20380;-82
2021/04/25 03:20:53;;;;;;;6.25;3.70;;;;;;;;;;5073413;28;20755;-81
2021/04/25 03:23:19;;;;;;;7.25;3.75;;;;;;;;;;5092141;28;20368;-81
2021/04/25 03:25:45;;;;;;;5.18;3.40;;;;;;;;;;5092485;28;20442;-79
2021/04/25 03:28:11;;;;;;;6.95;3.88;;;;;;;;;;5091999;28;20383;-79
2021/04/25 03:30:37;;;;;;;5.90;3.80;;;;;;;;;;5091954;28;20400;-81
2021/04/25 03:33:03;;;;;;;5.97;3.92;;;;;;;;;;5073902;28;20412;-81
2021/04/25 03:35:30;;;;;;;5.63;3.70;;;;;;;;;;5074166;28;20369;-80
2021/04/25 03:37:56;;;;;;;7.97;3.90;;;;;;;;;;5092193;28;20407;-82
2021/04/25 03:40:22;;;;;;;5.17;3.40;;;;;;;;;;5074340;28;20520;-81
2021/04/25 03:42:49;;;;;;;7.20;3.70;;;;;;;;;;5092577;28;20369;-82
2021/04/25 03:45:15;;;;;;;6.97;4.20;;;;;;;;;;5092190;28;20456;-80
2021/04/25 03:47:45;;;;;;;5.30;3.70;;;;;;;;;;5092259;28;20373;-79
2021/04/25 03:50:11;;;;;;;5.22;3.70;;;;;;;;;;5091791;28;20400;-80
2021/04/25 03:52:37;;;;;;;4.55;3.53;;;;;;;;;;5073577;28;20383;-82
2021/04/25 03:55:04;;;;;;;6.82;3.38;;;;;;;;;;5092073;28;20881;-81
2021/04/25 03:57:30;;;;;;;6.85;3.80;;;;;;;;;;5094905;28;20361;-80
2021/04/25 03:59:56;;;;;;;4.90;3.50;;;;;;;;;;5093207;28;20936;-80
2021/04/25 04:02:22;;;;;;;7.53;3.95;;;;;;;;;;5091871;28;20396;-80
2021/04/25 04:04:48;;;;;;;7.38;3.78;;;;;;;;;;5100973;28;20609;-80
2021/04/25 04:07:14;;;;;;;5.97;3.55;;;;;;;;;;5091306;28;20393;-82
2021/04/25 04:09:40;;;;;;;5.60;3.60;;;;;;;;;;5091323;28;20417;-80
2021/04/25 04:12:08;;;;;;;6.05;3.55;;;;;;;;;;5091158;28;20387;-81
2021/04/25 04:14:34;;;;;;;4.57;3.40;;;;;;;;;;5091468;28;20376;-81
2021/04/25 04:17:00;;;;;;;8.18;3.90;;;;;;;;;;5072896;28;20731;-81
2021/04/25 04:19:26;;;;;;;6.20;3.70;;;;;;;;;;5072686;28;20396;-82
2021/04/25 04:21:52;;;;;;;6.47;3.70;;;;;;;;;;5090826;28;20365;-82
2021/04/25 04:24:18;;;;;;;5.25;3.30;;;;;;;;;;5091068;28;20434;-80
2021/04/25 04:26:44;;;;;;;4.33;3.33;;;;;;;;;;5090949;28;20370;-82
2021/04/25 04:29:10;;;;;;;5.65;3.55;;;;;;;;;;5072626;28;20375;-80
2021/04/25 04:31:36;;;;;;;3.83;2.80;;;;;;;;;;5090856;28;20372;-80
2021/04/25 04:34:02;;;;;;;4.60;3.45;;;;;;;;;;5091038;28;20471;-80
2021/04/25 04:36:28;;;;;;;5.38;3.30;;;;;;;;;;5072712;28;20805;-80
2021/04/25 04:38:55;;;;;;;5.30;3.50;;;;;;;;;;5090765;28;20369;-81
2021/04/25 04:41:22;;;;;;;4.90;3.50;;;;;;;;;;5090963;28;21003;-80
2021/04/25 04:43:48;;;;;;;7.15;3.50;;;;;;;;;;5072905;28;20384;-81
2021/04/25 04:46:14;;;;;;;3.85;3.17;;;;;;;;;;5091001;28;20458;-80
2021/04/25 04:48:40;;;;;;;7.10;3.53;;;;;;;;;;5090641;28;20917;-82
2021/04/25 04:51:06;;;;;;;4.97;3.20;;;;;;;;;;5090390;28;20456;-81
2021/04/25 04:53:32;;;;;;;4.87;3.20;;;;;;;;;;5090620;28;20467;-80
2021/04/25 04:55:58;;;;;;;4.22;2.97;;;;;;;;;;5090336;28;20472;-82
2021/04/25 04:58:24;;;;;;;3.95;2.80;;;;;;;;;;5072365;28;20373;-81
2021/04/25 05:00:50;;;;;;;4.60;3.20;;;;;;;;;;5089966;28;20399;-83
2021/04/25 05:03:16;;;;;;;3.60;2.80;;;;;;;;;;5072027;28;20469;-82
2021/04/25 05:05:43;;;;;;;3.37;2.90;;;;;;;;;;5072228;28;20561;-81
2021/04/25 05:08:09;;;;;;;7.68;3.72;;;;;;;;;;5071800;28;20390;-80
2021/04/25 05:10:35;;;;;;;7.97;5.50;;;;;;;;;;5089819;28;20447;-80
2021/04/25 05:13:01;;;;;;;5.70;3.60;;;;;;;;;;5071592;28;20862;-81
2021/04/25 05:15:27;;;;;;;6.07;4.50;;;;;;;;;;5089924;28;20440;-81
2021/04/25 05:17:53;;;;;;;6.10;4.55;;;;;;;;;;5071406;28;20722;-82
2021/04/25 05:20:19;;;;;;;4.65;3.85;;;;;;;;;;5088752;28;20407;-81
2021/04/25 05:22:45;;;;;;;5.85;4.15;;;;;;;;;;5089923;28;20455;-82
2021/04/25 05:25:11;;;;;;;4.50;3.28;;;;;;;;;;5089834;28;20888;-81
2021/04/25 05:27:37;;;;;;;5.15;3.80;;;;;;;;;;5089749;28;20372;-80
2021/04/25 05:30:04;;;;;;;4.93;3.80;;;;;;;;;;5089690;28;20372;-80
2021/04/25 05:32:30;;;;;;;5.38;3.83;;;;;;;;;;5089700;28;20369;-82
2021/04/25 05:34:56;;;;;;;5.22;3.63;;;;;;;;;;5090265;28;20487;-82
2021/04/25 05:37:22;;;;;;;4.05;3.20;;;;;;;;;;5071263;28;20384;-80
2021/04/25 05:39:48;;;;;;;6.57;3.75;;;;;;;;;;5089622;28;20493;-82
2021/04/25 05:42:14;;;;;;;5.33;3.40;;;;;;;;;;5089691;28;20395;-80
2021/04/25 05:44:39;;;;;;;5.07;3.17;;;;;;;;;;5089688;28;20383;-80
2021/04/25 05:47:06;;;;;;;3.88;3.03;;;;;;;;;;5071297;28;20368;-81
2021/04/25 05:49:32;;;;;;;5.43;3.10;;;;;;;;;;5089239;28;20372;-81
2021/04/25 05:51:58;;;;;;;5.15;3.38;;;;;;;;;;5072044;28;20369;-80
2021/04/25 05:54:24;;;;;;;5.18;2.60;;;;;;;;;;5071740;28;20380;-81
2021/04/25 05:56:50;;;;;;;3.83;2.70;;;;;;;;;;5090317;28;20375;-81
2021/04/25 05:59:16;;;;;;;4.88;2.83;;;;;;;;;;5090016;28;20411;-81
2021/04/25 06:01:42;;;;;;;5.78;3.13;;;;;;;;;;5090866;28;20418;-82
2021/04/25 06:04:08;;;;;;;4.63;2.50;;;;;;;;;;5071279;28;21421;-80
2021/04/25 06:06:34;;;;;;;6.23;2.90;;;;;;;;;;5089381;28;20928;-81
2021/04/25 06:09:00;;;;;;;4.15;2.80;;;;;;;;;;5089256;28;20373;-82
2021/04/25 06:11:26;;;;;;;9.70;2.80;;;;;;;;;;5089645;28;20356;-81
2021/04/25 06:13:52;;;;;;;5.45;3.10;;;;;;;;;;5071077;28;20401;-83
2021/04/25 06:16:18;;;;;;;4.78;2.75;;;;;;;;;;5089426;28;20403;-80
2021/04/25 06:18:45;;;;;;;4.85;2.70;;;;;;;;;;5093149;28;20381;-81
2021/04/25 06:21:11;;;;;;;4.22;2.63;;;;;;;;;;5089310;28;20384;-80
2021/04/25 06:23:37;;;;;;;6.30;3.05;;;;;;;;;;5089191;28;20426;-82
2021/04/25 06:26:03;;;;;;;4.55;2.67;;;;;;;;;;5089101;28;20368;-80
2021/04/25 06:28:29;;;;;;;4.53;2.83;;;;;;;;;;5088739;28;20384;-83
2021/04/25 06:30:57;;;;;;;5.15;2.92;;;;;;;;;;5089006;28;20361;-80
2021/04/25 06:33:23;;;;;;;4.53;2.70;;;;;;;;;;5089067;28;20716;-81
2021/04/25 06:35:49;;;;;;;5.20;3.17;;;;;;;;;;5089252;28;20408;-80
2021/04/25 06:38:15;;;;;;;5.90;2.80;;;;;;;;;;5088915;28;20376;-81
2021/04/25 06:40:41;;;;;;;4.00;2.80;;;;;;;;;;5088949;28;20451;-80
2021/04/25 06:43:07;;;;;;;4.80;2.65;;;;;;;;;;5089282;28;20360;-80
2021/04/25 06:45:33;;;;;;;4.82;2.95;;;;;;;;;;5090572;28;20847;-82
2021/04/25 06:47:59;;;;;;;5.60;3.00;;;;;;;;;;5089908;28;20360;-83
2021/04/25 06:50:26;;;;;;;4.35;2.35;;;;;;;;;;5072823;28;20395;-83
2021/04/25 06:52:52;;;;;;;4.15;2.75;;;;;;;;;;5072776;28;20447;-80
2021/04/25 06:55:19;;;;;;;118.87;12.27;;;;;;;;;;5089334;28;20390;-82
2021/04/25 06:57:46;;;;;;;8.00;3.05;;;;;;;;;;5089104;28;20475;-82
2021/04/25 07:00:12;;;;;;;4.97;2.60;;;;;;;;;;5070307;28;20949;-84
2021/04/25 07:02:38;;;;;;;4.30;2.83;;;;;;;;;;5070670;28;20533;-82
2021/04/25 07:05:05;;;;;;;4.00;2.50;;;;;;;;;;5070650;28;20380;-82
2021/04/25 07:07:31;;;;;;;4.43;2.72;;;;;;;;;;5086093;28;20466;-81
2021/04/25 07:09:58;;;;;;;5.95;2.85;;;;;;;;;;5068917;28;20420;-81
2021/04/25 07:12:25;;;;;;;4.85;3.10;;;;;;;;;;5069430;28;20534;-81
2021/04/25 07:14:51;;;;;;;4.13;2.70;;;;;;;;;;5068562;28;20368;-81
2021/04/25 07:17:17;;;;;;;3.90;2.70;;;;;;;;;;5086934;28;20364;-81
2021/04/25 07:19:43;;;;;;;5.63;2.72;;;;;;;;;;5087439;28;20404;-81
2021/04/25 07:22:09;;;;;;;4.80;2.70;;;;;;;;;;5087956;28;20909;-81
2021/04/25 07:24:35;;;;;;;5.10;2.85;;;;;;;;;;5088427;28;20850;-81
2021/04/25 07:27:01;;;;;;;3.40;2.60;;;;;;;;;;5088656;28;20399;-82
2021/04/25 07:29:28;;;;;;;3.60;2.63;;;;;;;;;;5070188;28;20384;-81
2021/04/25 07:31:54;;;;;;;4.53;2.78;;;;;;;;;;5088411;28;20364;-82
2021/04/25 07:34:20;;;;;;;4.03;2.80;;;;;;;;;;5088195;28;20904;-82
2021/04/25 07:36:46;;;;;;;4.05;2.90;;;;;;;;;;5088766;28;20372;-81
2021/04/25 07:39:12;;;;;;;11.57;3.50;;;;;;;;;;5072213;28;20440;-82
2021/04/25 07:41:39;;;;;;;5.28;3.00;;;;;;;;;;5091286;28;20463;-81
2021/04/25 07:44:05;;;;;;;4.13;2.70;;;;;;;;;;5090520;28;20390;-82
2021/04/25 07:46:31;;;;;;;6.03;2.97;;;;;;;;;;5092068;28;20360;-82
2021/04/25 07:48:57;;;;;;;4.30;3.13;;;;;;;;;;5091702;28;20941;-82
2021/04/25 07:51:23;;;;;;;5.07;3.13;;;;;;;;;;5091588;28;20515;-82
2021/04/25 07:53:53;;;;;;;4.57;3.10;;;;;;;;;;5091271;28;20490;-82
2021/04/25 07:56:19;;;;;;;5.30;3.50;;;;;;;;;;5073587;28;20467;-82
2021/04/25 07:58:45;;;;;;;5.32;3.53;;;;;;;;;;5073579;28;20369;-81
2021/04/25 08:01:11;;;;;;;6.90;3.78;;;;;;;;;;5091388;28;20483;-81
2021/04/25 08:03:37;;;;;;;7.50;4.10;;;;;;;;;;5091775;28;20445;-82
2021/04/25 08:06:05;;;;;;;5.93;3.90;;;;;;;;;;5091659;28;20789;-82
2021/04/25 08:08:31;;;;;;;5.05;3.65;;;;;;;;;;5073069;28;20389;-82
2021/04/25 08:10:57;;;;;;;6.28;4.00;;;;;;;;;;5089942;28;20399;-81
2021/04/25 08:13:24;;;;;;;6.50;4.20;;;;;;;;;;5090937;28;20376;-83
2021/04/25 08:15:50;;;;;;;8.80;3.88;;;;;;;;;;5072379;28;20389;-81
2021/04/25 08:18:16;;;;;;;7.75;3.72;;;;;;;;;;5090117;28;20430;-81
2021/04/25 08:20:42;;;;;;;4.47;3.58;;;;;;;;;;5072190;28;20447;-81
2021/04/25 08:23:08;;;;;;;5.85;3.67;;;;;;;;;;5072386;28;20858;-81
2021/04/25 08:25:34;;;;;;;6.25;3.20;;;;;;;;;;5091014;28;20688;-80
2021/04/25 08:28:00;;;;;;;6.00;3.20;;;;;;;;;;5091162;28;20375;-81
2021/04/25 08:30:26;;;;;;;4.97;2.70;;;;;;;;;;5091091;28;20376;-81
2021/04/25 08:32:53;;;;;;;6.43;3.03;;;;;;;;;;5091508;28;20361;-82
2021/04/25 08:35:19;;;;;;;5.47;3.07;;;;;;;;;;5073075;28;20955;-83
2021/04/25 08:37:48;;;;;;;4.95;2.78;;;;;;;;;;5072746;28;20377;-82
2021/04/25 08:40:14;;;;;;;4.50;2.50;;;;;;;;;;5091111;28;20404;-81
2021/04/25 08:42:43;;;;;;;5.17;2.70;;;;;;;;;;5091415;28;20897;-81
2021/04/25 08:45:14;;;;;;;5.22;2.60;;;;;;;;;;5073030;28;20377;-81
2021/04/25 08:47:47;;;;;;;5.45;2.55;;;;;;;;;;5073400;28;20420;-82
2021/04/25 08:50:13;;;;;;;5.63;2.40;;;;;;;;;;5091238;28;20373;-82
2021/04/25 08:52:39;;;;;;;5.68;2.10;;;;;;;;;;5091473;28;20463;-83
2021/04/25 08:55:06;;;;;;;6.05;2.60;;;;;;;;;;5072534;28;20383;-81
2021/04/25 08:57:32;;;;;;;7.43;2.50;;;;;;;;;;5091119;28;20463;-83
2021/04/25 08:59:57;;;;;;;6.23;2.53;;;;;;;;;;5072285;28;20481;-82
2021/04/25 09:02:23;;;;;;;4.50;2.50;;;;;;;;;;5090482;28;20999;-81
2021/04/25 09:04:49;;;;;;;5.47;2.30;;;;;;;;;;5072520;28;20460;-84
2021/04/25 09:07:17;;;;;;;6.57;2.85;;;;;;;;;;5088772;28;20388;-81
2021/04/25 09:09:51;;;;;;;5.00;2.83;;;;;;;;;;5074829;28;20467;-80
2021/04/25 09:12:38;;;;;;;4.72;2.45;;;;;;;;;;5090102;28;20372;-81
2021/04/25 09:15:23;;;;;;;21.20;3.42;;;;;;;;;;5069803;28;20389;-81
2021/04/25 09:17:50;;;;;;;7.45;2.90;;;;;;;;;;5089819;28;20392;-81
2021/04/25 09:20:16;;;;;;;4.30;2.42;;;;;;;;;;5089358;28;20412;-80
2021/04/25 09:22:44;;;;;;;5.77;2.63;;;;;;;;;;5088522;28;20437;-81
2021/04/25 09:25:11;;;;;;;5.38;2.72;;;;;;;;;;5088893;28;20427;-81
2021/04/25 09:27:37;;;;;;;3.75;2.20;;;;;;;;;;5089621;28;20373;-80
2021/04/25 09:30:04;;;;;;;3.58;2.28;;;;;;;;;;5089076;28;20376;-81
2021/04/25 09:32:32;;;;;;;5.32;2.25;;;;;;;;;;5089646;28;20390;-82
2021/04/25 09:35:09;;;;;;;4.97;2.40;;;;;;;;;;5070762;28;20461;-81
2021/04/25 09:37:36;;;;;;;4.40;2.67;;;;;;;;;;5089513;28;20384;-82
2021/04/25 09:40:09;;;;;;;5.13;2.70;;;;;;;;;;5089413;28;20418;-81
2021/04/25 09:42:56;;;;;;;3.85;2.40;;;;;;;;;;5088641;28;20395;-81
2021/04/25 09:45:32;;;;;;;3.80;2.30;;;;;;;;;;5067898;28;20378;-83
2021/04/25 09:47:59;;;;;;;4.63;2.42;;;;;;;;;;5072364;28;20376;-81
2021/04/25 09:50:25;;;;;;;4.85;2.20;;;;;;;;;;5070371;28;20384;-81
2021/04/25 09:52:52;;;;;;;4.40;2.20;;;;;;;;;;5088430;28;20364;-81
2021/04/25 09:55:18;;;;;;;3.92;2.10;;;;;;;;;;5088441;28;20855;-81
2021/04/25 09:57:44;;;;;;;5.78;2.10;;;;;;;;;;5088506;28;20375;-81
2021/04/25 10:00:11;;;;;;;3.67;2.10;;;;;;;;;;5088252;28;20462;-82
2021/04/25 10:02:56;;;;;;;3.95;2.03;;;;;;;;;;5088827;28;20372;-81
2021/04/25 10:05:22;;;;;;;3.70;2.00;;;;;;;;;;5087013;28;20730;-87
2021/04/25 10:07:49;;;;;;;4.00;1.83;;;;;;;;;;5088364;28;20398;-82
2021/04/25 10:10:16;;;;;;;3.70;1.80;;;;;;;;;;5088465;28;20393;-81
2021/04/25 10:12:44;;;;;;;2.53;1.50;;;;;;;;;;5088358;28;20881;-83
2021/04/25 10:15:11;;;;;;;2.13;1.15;;;;;;;;;;5070336;28;20461;-81
2021/04/25 10:17:41;;;;;;;3.05;1.40;;;;;;;;;;5087688;28;20388;-81
2021/04/25 10:20:08;;;;;;;4.18;1.50;;;;;;;;;;5087382;28;20396;-81
2021/04/25 10:22:35;;;;;;;2.85;1.52;;;;;;;;;;5069200;28;20380;-82
2021/04/25 10:25:01;;;;;;;2.47;1.30;;;;;;;;;;5068840;28;20582;-82
2021/04/25 10:27:28;;;;;;;4.00;1.65;;;;;;;;;;5086830;28;20906;-82
2021/04/25 10:29:55;;;;;;;3.35;1.60;;;;;;;;;;5085757;28;20411;-81
2021/04/25 10:32:22;;;;;;;3.35;1.60;;;;;;;;;;5085399;28;20368;-80
2021/04/25 10:34:50;;;;;;;3.80;1.40;;;;;;;;;;5067358;28;20380;-81
2021/04/25 10:37:18;;;;;;;3.23;1.40;;;;;;;;;;5066933;28;20870;-81
2021/04/25 10:39:49;;;;;;;4.75;1.50;;;;;;;;;;5067404;28;20408;-82
2021/04/25 10:42:21;;;;;;;3.78;1.55;;;;;;;;;;5086749;28;20433;-80
2021/04/25 10:44:57;;;;;;;2.57;1.63;;;;;;;;;;5068380;28;20420;-81
2021/04/25 10:47:23;;;;;;;3.38;1.50;;;;;;;;;;5086212;28;20438;-81
2021/04/25 10:49:49;;;;;;;2.75;1.45;;;;;;;;;;5089939;28;20467;-81
2021/04/25 10:52:29;;;;;;;4.03;1.50;;;;;;;;;;5075008;28;20372;-79
2021/04/25 10:55:13;;;;;;;3.13;1.67;;;;;;;;;;5086655;28;20892;-79
2021/04/25 10:57:52;;;;;;;4.47;1.42;;;;;;;;;;5068426;28;20770;-80
2021/04/25 11:03:00;;;;;;;2.08;1.50;;;;;;;;;;5086639;28;20376;-79
2021/04/25 11:05:41;;;;;;;2.47;1.33;;;;;;;;;;5068810;28;20388;-79
2021/04/25 11:08:07;;;;;;;4.22;1.42;;;;;;;;;;5086297;28;20814;-79
2021/04/25 11:10:47;;;;;;;2.92;1.20;;;;;;;;;;5069187;28;20399;-81
2021/04/25 11:13:32;;;;;;;4.97;1.38;;;;;;;;;;5086296;28;20396;-81
2021/04/25 11:16:00;;;;;;;3.70;1.50;;;;;;;;;;5066676;28;20722;-80
2021/04/25 11:18:46;;;;;;;2.95;1.48;;;;;;;;;;5088823;28;20392;-80
2021/04/25 11:21:37;;;;;;;3.35;1.45;;;;;;;;;;5089826;28;20396;-80
2021/04/25 11:29:02;;;;;;;3.90;1.60;;;;;;;;;;5089701;28;20403;-81
2021/04/25 11:31:43;;;;;;;2.67;1.60;;;;;;;;;;5091933;28;20878;-83
2021/04/25 11:34:32;;;;;;;3.45;1.50;;;;;;;;;;5073296;28;20746;-81
2021/04/25 11:37:01;;;;;;;1.60;1.30;;;;;;;;;;5091057;28;20376;-81
2021/04/25 11:39:28;;;;;;;2.42;1.42;;;;;;;;;;5071495;28;20466;-81
2021/04/25 11:41:54;;;;;;;3.05;1.58;;;;;;;;;;5073250;28;20936;-81
2021/04/25 11:44:30;;;;;;;2.17;1.33;;;;;;;;;;5089092;28;20730;-82
2021/04/25 11:46:58;;;;;;;3.83;1.70;;;;;;;;;;5053641;28;20506;-81
2021/04/25 11:49:30;;;;;;;3.70;1.40;;;;;;;;;;5070991;28;20430;-81
2021/04/25 11:52:14;;;;;;;2.40;1.00;;;;;;;;;;5091914;28;20364;-80
2021/04/25 11:54:41;;;;;;;2.67;1.10;;;;;;;;;;5073277;28;20882;-81
2021/04/25 11:57:09;;;;;;;2.47;1.30;;;;;;;;;;5073592;28;20404;-81
2021/04/25 11:59:35;;;;;;;2.88;0.90;;;;;;;;;;5073203;28;20411;-81
2021/04/25 12:02:08;;;;;;;2.88;0.93;;;;;;;;;;5091698;28;20380;-81
2021/04/25 12:04:44;;;;;;;1.98;1.02;;;;;;;;;;5090835;28;20920;-84
2021/04/25 12:07:11;;;;;;;3.67;0.98;;;;;;;;;;5089624;28;20421;-82
2021/04/25 12:09:38;;;;;;;3.60;1.40;;;;;;;;;;5086182;28;20386;-80
2021/04/25 12:12:05;;;;;;;3.67;1.20;;;;;;;;;;5064943;28;20917;-80
2021/04/25 12:14:32;;;;;;;2.15;0.98;;;;;;;;;;5091122;28;20360;-82
2021/04/25 12:17:14;;;;;;;8.05;1.58;;;;;;;;;;5090910;28;20408;-80
2021/04/25 12:19:40;;;;;;;2.97;1.17;;;;;;;;;;5089098;28;20409;-80
2021/04/25 12:22:07;;;;;;;2.03;0.90;;;;;;;;;;5089789;28;20437;-81
2021/04/25 12:24:33;;;;;;;1.70;1.00;;;;;;;;;;5090072;28;20365;-80
2021/04/25 12:26:59;;;;;;;1.73;0.98;;;;;;;;;;5093047;28;20489;-80
2021/04/25 12:29:35;;;;;;;1.60;1.00;;;;;;;;;;5101345;28;20363;-80
2021/04/25 12:32:01;;;;;;;1.73;1.00;;;;;;;;;;5092239;28;20376;-79
2021/04/25 12:34:29;;;;;;;1.38;0.70;;;;;;;;;;5089757;28;20380;-80
2021/04/25 12:36:57;;;;;;;3.22;0.90;;;;;;;;;;5090242;28;20361;-79
2021/04/25 12:39:24;;;;;;;1.50;0.98;;;;;;;;;;5091489;28;20431;-80
2021/04/25 12:41:52;;;;;;;1.40;0.70;;;;;;;;;;5090753;28;20388;-81
2021/04/25 12:44:19;;;;;;;2.85;0.73;;;;;;;;;;5090281;28;20395;-80
2021/04/25 12:46:52;;;;;;;1.30;0.80;;;;;;;;;;5090657;28;20352;-81
2021/04/25 12:49:18;;;;;;;1.10;0.65;;;;;;;;;;5089985;28;20376;-80
2021/04/25 12:51:48;;;;;;;1.20;0.70;;;;;;;;;;5090325;28;20851;-80
2021/04/25 12:54:20;;;;;;;2.10;0.80;;;;;;;;;;5089935;28;20796;-80
2021/04/25 12:56:51;;;;;;;0.90;0.55;;;;;;;;;;5089754;28;20943;-80
2021/04/25 12:59:37;;;;;;;0.87;0.60;;;;;;;;;;5081544;28;20484;-80
2021/04/25 13:02:05;;;;;;;2.75;0.90;;;;;;;;;;5087939;28;20398;-81
2021/04/25 13:04:39;;;;;;;2.03;0.70;;;;;;;;;;5088970;28;20936;-81
2021/04/25 13:07:14;;;;;;;2.97;1.08;;;;;;;;;;5087432;28;20901;-82
2021/04/25 13:09:40;;;;;;;1.58;0.80;;;;;;;;;;5089639;28;20762;-84
2021/04/25 13:12:22;;;;;;;2.72;0.70;;;;;;;;;;5088821;28;20471;-80
2021/04/25 13:15:01;;;;;;;2.37;0.73;;;;;;;;;;5068921;28;20466;-82
2021/04/25 13:17:28;;;;;;;1.40;0.80;;;;;;;;;;5089441;28;20384;-80
2021/04/25 13:19:54;;;;;;;1.10;0.60;;;;;;;;;;5089010;28;20956;-80
2021/04/25 13:22:21;;;;;;;1.47;0.63;;;;;;;;;;5070665;28;20755;-81
2021/04/25 13:24:47;;;;;;;1.70;0.70;;;;;;;;;;5071041;28;20373;-81
2021/04/25 13:27:14;;;;;;;1.63;0.70;;;;;;;;;;5089616;28;20449;-82
2021/04/25 13:29:41;;;;;;;1.60;0.70;;;;;;;;;;5070993;28;20380;-81
2021/04/25 13:32:07;;;;;;;1.13;0.60;;;;;;;;;;5089103;28;20373;-80
2021/04/25 13:34:33;;;;;;;1.73;0.73;;;;;;;;;;5089348;28;20382;-80
2021/04/25 13:36:59;;;;;;;1.30;0.70;;;;;;;;;;5071015;28;20381;-80
2021/04/25 13:39:25;;;;;;;2.67;0.70;;;;;;;;;;5088859;28;20411;-83
2021/04/25 13:41:51;;;;;;;0.77;0.65;;;;;;;;;;5087735;28;20395;-80
2021/04/25 13:44:18;;;;;;;2.65;0.70;;;;;;;;;;5088318;28;20773;-80
2021/04/25 13:46:45;;;;;;;1.23;0.70;;;;;;;;;;5069698;28;20383;-80
2021/04/25 13:49:11;;;;;;;1.35;0.98;;;;;;;;;;5086457;28;20403;-80
2021/04/25 13:51:38;;;;;;;2.25;0.80;;;;;;;;;;5087488;28;20455;-80
2021/04/25 13:54:05;;;;;;;2.33;0.90;;;;;;;;;;5087464;28;20388;-79
2021/04/25 13:56:31;;;;;;;3.22;1.00;;;;;;;;;;5087191;28;20408;-80
2021/04/25 13:58:57;;;;;;;1.27;0.70;;;;;;;;;;5087234;28;20426;-80
2021/04/25 14:01:24;;;;;;;1.92;0.90;;;;;;;;;;5087496;28;20886;-80
2021/04/25 14:03:50;;;;;;;1.48;0.77;;;;;;;;;;5086986;28;20376;-80
2021/04/25 14:06:16;;;;;;;1.75;0.60;;;;;;;;;;5086900;28;20415;-80
2021/04/25 14:08:43;;;;;;;1.45;0.80;;;;;;;;;;5087345;28;20473;-80
2021/04/25 14:11:10;;;;;;;1.30;0.70;;;;;;;;;;5088798;28;20376;-80
2021/04/25 14:13:36;;;;;;;1.60;0.80;;;;;;;;;;5085527;28;20783;-80
2021/04/25 14:16:03;;;;;;;1.70;0.80;;;;;;;;;;5087806;28;20379;-80
2021/04/25 14:18:29;;;;;;;1.70;0.70;;;;;;;;;;5087685;28;20450;-79
2021/04/25 14:20:56;;;;;;;0.75;0.63;;;;;;;;;;5087705;28;20404;-80
2021/04/25 14:23:22;;;;;;;2.78;0.75;;;;;;;;;;5088344;28;20707;-80
2021/04/25 14:25:49;;;;;;;3.35;0.70;;;;;;;;;;5086055;28;20368;-81
2021/04/25 14:28:15;;;;;;;2.67;0.93;;;;;;;;;;5087479;28;20434;-80
2021/04/25 14:30:41;;;;;;;1.60;0.70;;;;;;;;;;5086373;28;20407;-80
2021/04/25 14:33:07;;;;;;;0.80;0.70;;;;;;;;;;5069960;28;20383;-80
2021/04/25 14:35:34;;;;;;;0.75;0.70;;;;;;;;;;5087282;28;20384;-81
2021/04/25 14:38:00;;;;;;;2.13;0.80;;;;;;;;;;5069167;28;20450;-80
2021/04/25 14:40:28;;;;;;;1.15;0.70;;;;;;;;;;5069620;28;20443;-80
2021/04/25 14:42:54;;;;;;;2.72;0.70;;;;;;;;;;5087649;28;20471;-80
2021/04/25 14:45:21;;;;;;;4.30;1.10;;;;;;;;;;5069945;28;20381;-81
2021/04/25 14:47:48;;;;;;;1.58;0.90;;;;;;;;;;5087350;28;20905;-81
2021/04/25 14:50:15;;;;;;;1.73;0.60;;;;;;;;;;5086958;28;20381;-81
2021/04/25 14:52:41;;;;;;;2.17;0.70;;;;;;;;;;5088636;28;20949;-80